Springfield Branson National Airport
KSGF : now visible

Airfield :











YOU CAN JOIN US ON...

 
LOGIN :

Register | Disclaimer

   EN    FR    IT 

 









Legend :    VFR   Marginal VFR   IFR   Intensive IFR   Very Intensive IFR
Visi :
Ceiling :
>= 8 km
>= 3000ft
5 to 8 km
1000 to 3000 ft
1500m to 5 km
500 to 1000 ft
800 to 1500m
200 to 500 ft
< 800m
< 200 ft
Symbols :   Thunderstorms  Fog  Heavy snow  Heavy precipitations  Wind > 20 kt






- Airport Elevation : 1268 ft
- IATA code : SGF


KSGF - Springfield Branson National

CURRENT METAR :
  • 240352Z 16008KT 10SM CLR 17/13 A3001 RMK AO2 SLP153 T01670128

EXPIRED METARs :
  • 240252Z 16007KT 10SM CLR 17/13 A3000 RMK AO2 SLP152 T01720128 53008
  • 240152Z 16008KT 10SM CLR 19/13 A2999 RMK AO2 SLP150 T01890128

TAF KSGF
Valid from the 24 at 00:00 until the 25 at 00:00 UTC


232320Z 2400/2424 12004KT P6SM SKC
FM240300 15004KT P6SM SKC
FM241100 VRB03KT 4SM BR SCT015
FM241400 VRB03KT P6SM SKC
KZKC FIR / North America



MET'MAP, your aeronautical weather chart ! - Copyright ORBIFLY December 2007 - Disclaimer

ORBIFLY MET'MAP TEAM :

Programming & Development : Alexandra Zaïnal
Concept & original design : Baudouin d'Aumeries
Assistance for programming : Marc-Olivier Méhu
Technical & hardware support : Manuel Goepfert

Contact : metmap@orbifly.com




SOURCES & CREDITS :

   NOAA       Earth
Advisory